sensor_id;sensor_type;location;lat;lon;timestamp;P1;durP1;ratioP1;P2;durP2;ratioP2
59189;SDS011;50749;51.636;4.948;2023-10-13T00:00:37;3.75;;;2.13;;
59189;SDS011;50749;51.636;4.948;2023-10-13T00:03:25;3.90;;;1.80;;
59189;SDS011;50749;51.636;4.948;2023-10-13T00:05:57;3.45;;;1.55;;
59189;SDS011;50749;51.636;4.948;2023-10-13T00:08:26;4.32;;;1.65;;
59189;SDS011;50749;51.636;4.948;2023-10-13T00:10:52;2.95;;;1.75;;
59189;SDS011;50749;51.636;4.948;2023-10-13T00:13:19;2.45;;;1.40;;
59189;SDS011;50749;51.636;4.948;2023-10-13T00:15:46;3.28;;;1.70;;
59189;SDS011;50749;51.636;4.948;2023-10-13T00:18:30;4.15;;;2.33;;
59189;SDS011;50749;51.636;4.948;2023-10-13T00:21:00;2.17;;;1.45;;
59189;SDS011;50749;51.636;4.948;2023-10-13T00:23:26;2.05;;;1.20;;
59189;SDS011;50749;51.636;4.948;2023-10-13T00:25:52;2.85;;;1.35;;
59189;SDS011;50749;51.636;4.948;2023-10-13T00:28:25;3.88;;;1.60;;
59189;SDS011;50749;51.636;4.948;2023-10-13T00:31:00;2.97;;;1.30;;
59189;SDS011;50749;51.636;4.948;2023-10-13T00:33:38;3.58;;;1.60;;
59189;SDS011;50749;51.636;4.948;2023-10-13T00:36:07;2.97;;;1.75;;
59189;SDS011;50749;51.636;4.948;2023-10-13T00:38:34;6.03;;;1.67;;
59189;SDS011;50749;51.636;4.948;2023-10-13T00:41:00;3.40;;;1.25;;
59189;SDS011;50749;51.636;4.948;2023-10-13T00:43:46;3.35;;;1.50;;
59189;SDS011;50749;51.636;4.948;2023-10-13T00:46:32;3.50;;;1.50;;
59189;SDS011;50749;51.636;4.948;2023-10-13T00:49:00;2.05;;;1.40;;
59189;SDS011;50749;51.636;4.948;2023-10-13T00:51:29;3.72;;;1.50;;
59189;SDS011;50749;51.636;4.948;2023-10-13T00:54:06;3.33;;;1.67;;
59189;SDS011;50749;51.636;4.948;2023-10-13T00:56:40;3.55;;;1.65;;
59189;SDS011;50749;51.636;4.948;2023-10-13T00:59:15;2.70;;;1.60;;
59189;SDS011;50749;51.636;4.948;2023-10-13T01:01:41;2.33;;;1.10;;
59189;SDS011;50749;51.636;4.948;2023-10-13T01:04:09;2.75;;;1.85;;
59189;SDS011;50749;51.636;4.948;2023-10-13T01:06:38;5.13;;;1.60;;
59189;SDS011;50749;51.636;4.948;2023-10-13T01:09:05;2.55;;;1.48;;
59189;SDS011;50749;51.636;4.948;2023-10-13T01:11:41;3.08;;;1.38;;
59189;SDS011;50749;51.636;4.948;2023-10-13T01:14:21;2.40;;;1.05;;
59189;SDS011;50749;51.636;4.948;2023-10-13T01:16:48;4.78;;;1.65;;
59189;SDS011;50749;51.636;4.948;2023-10-13T01:19:24;6.15;;;2.03;;
59189;SDS011;50749;51.636;4.948;2023-10-13T01:21:50;2.33;;;1.40;;
59189;SDS011;50749;51.636;4.948;2023-10-13T01:24:22;5.55;;;1.45;;
59189;SDS011;50749;51.636;4.948;2023-10-13T01:26:49;4.03;;;1.38;;
59189;SDS011;50749;51.636;4.948;2023-10-13T01:29:18;2.40;;;1.15;;
59189;SDS011;50749;51.636;4.948;2023-10-13T01:31:45;4.20;;;1.48;;
59189;SDS011;50749;51.636;4.948;2023-10-13T01:34:12;4.32;;;1.33;;
59189;SDS011;50749;51.636;4.948;2023-10-13T01:36:44;2.10;;;1.45;;
59189;SDS011;50749;51.636;4.948;2023-10-13T01:39:11;3.45;;;1.45;;
59189;SDS011;50749;51.636;4.948;2023-10-13T01:41:41;3.63;;;1.77;;
59189;SDS011;50749;51.636;4.948;2023-10-13T01:44:09;4.38;;;1.40;;
59189;SDS011;50749;51.636;4.948;2023-10-13T01:46:38;4.05;;;1.73;;
59189;SDS011;50749;51.636;4.948;2023-10-13T01:49:04;3.22;;;1.30;;
59189;SDS011;50749;51.636;4.948;2023-10-13T01:51:30;2.13;;;1.40;;
59189;SDS011;50749;51.636;4.948;2023-10-13T01:53:56;4.22;;;1.40;;
59189;SDS011;50749;51.636;4.948;2023-10-13T01:56:21;2.78;;;1.40;;
59189;SDS011;50749;51.636;4.948;2023-10-13T01:58:49;2.85;;;1.33;;
59189;SDS011;50749;51.636;4.948;2023-10-13T02:01:14;3.38;;;1.58;;
59189;SDS011;50749;51.636;4.948;2023-10-13T02:03:52;2.08;;;1.20;;
59189;SDS011;50749;51.636;4.948;2023-10-13T02:06:27;4.22;;;1.38;;
59189;SDS011;50749;51.636;4.948;2023-10-13T02:09:05;4.93;;;1.58;;
59189;SDS011;50749;51.636;4.948;2023-10-13T02:11:51;4.03;;;1.30;;
59189;SDS011;50749;51.636;4.948;2023-10-13T02:14:20;2.95;;;1.20;;
59189;SDS011;50749;51.636;4.948;2023-10-13T02:16:51;3.10;;;1.33;;
59189;SDS011;50749;51.636;4.948;2023-10-13T02:19:37;3.38;;;1.30;;
59189;SDS011;50749;51.636;4.948;2023-10-13T02:22:08;1.90;;;1.15;;
59189;SDS011;50749;51.636;4.948;2023-10-13T02:24:36;3.90;;;1.48;;
59189;SDS011;50749;51.636;4.948;2023-10-13T02:27:07;1.70;;;1.00;;
59189;SDS011;50749;51.636;4.948;2023-10-13T02:29:42;3.50;;;1.50;;
59189;SDS011;50749;51.636;4.948;2023-10-13T02:32:11;3.63;;;1.42;;
59189;SDS011;50749;51.636;4.948;2023-10-13T02:34:46;2.58;;;1.27;;
59189;SDS011;50749;51.636;4.948;2023-10-13T02:37:12;2.65;;;1.30;;
59189;SDS011;50749;51.636;4.948;2023-10-13T02:39:39;2.10;;;1.30;;
59189;SDS011;50749;51.636;4.948;2023-10-13T02:42:08;1.90;;;1.23;;
59189;SDS011;50749;51.636;4.948;2023-10-13T02:44:50;2.88;;;1.30;;
59189;SDS011;50749;51.636;4.948;2023-10-13T02:47:16;2.42;;;1.60;;
59189;SDS011;50749;51.636;4.948;2023-10-13T02:49:44;4.63;;;1.20;;
59189;SDS011;50749;51.636;4.948;2023-10-13T02:52:12;2.47;;;1.23;;
59189;SDS011;50749;51.636;4.948;2023-10-13T02:54:42;4.50;;;1.70;;
59189;SDS011;50749;51.636;4.948;2023-10-13T02:57:16;2.33;;;1.40;;
59189;SDS011;50749;51.636;4.948;2023-10-13T02:59:43;4.57;;;1.35;;
59189;SDS011;50749;51.636;4.948;2023-10-13T03:02:13;2.17;;;1.40;;
59189;SDS011;50749;51.636;4.948;2023-10-13T03:04:46;3.45;;;1.80;;
59189;SDS011;50749;51.636;4.948;2023-10-13T03:07:12;3.58;;;1.33;;
59189;SDS011;50749;51.636;4.948;2023-10-13T03:09:50;2.30;;;1.27;;
59189;SDS011;50749;51.636;4.948;2023-10-13T03:12:20;2.97;;;1.30;;
59189;SDS011;50749;51.636;4.948;2023-10-13T03:14:47;3.53;;;1.48;;
59189;SDS011;50749;51.636;4.948;2023-10-13T03:17:13;3.10;;;1.23;;
59189;SDS011;50749;51.636;4.948;2023-10-13T03:19:42;3.72;;;1.40;;
59189;SDS011;50749;51.636;4.948;2023-10-13T03:22:13;2.70;;;1.30;;
59189;SDS011;50749;51.636;4.948;2023-10-13T03:24:42;2.15;;;1.25;;
59189;SDS011;50749;51.636;4.948;2023-10-13T03:27:18;3.67;;;1.73;;
59189;SDS011;50749;51.636;4.948;2023-10-13T03:30:04;2.58;;;1.40;;
59189;SDS011;50749;51.636;4.948;2023-10-13T03:32:36;5.50;;;1.92;;
59189;SDS011;50749;51.636;4.948;2023-10-13T03:35:09;3.65;;;1.83;;
59189;SDS011;50749;51.636;4.948;2023-10-13T03:37:38;3.60;;;1.42;;
59189;SDS011;50749;51.636;4.948;2023-10-13T03:40:05;1.95;;;1.30;;
59189;SDS011;50749;51.636;4.948;2023-10-13T03:42:46;3.53;;;1.75;;
59189;SDS011;50749;51.636;4.948;2023-10-13T03:45:35;4.03;;;1.77;;
59189;SDS011;50749;51.636;4.948;2023-10-13T03:48:08;3.78;;;1.60;;
59189;SDS011;50749;51.636;4.948;2023-10-13T03:50:37;3.08;;;1.50;;
59189;SDS011;50749;51.636;4.948;2023-10-13T03:53:13;3.28;;;1.42;;
59189;SDS011;50749;51.636;4.948;2023-10-13T03:55:39;3.08;;;1.30;;
59189;SDS011;50749;51.636;4.948;2023-10-13T03:58:05;3.95;;;1.80;;
59189;SDS011;50749;51.636;4.948;2023-10-13T04:00:32;3.13;;;1.50;;
59189;SDS011;50749;51.636;4.948;2023-10-13T04:02:58;3.70;;;2.10;;
59189;SDS011;50749;51.636;4.948;2023-10-13T04:05:42;3.78;;;2.17;;
59189;SDS011;50749;51.636;4.948;2023-10-13T04:08:11;3.10;;;1.90;;
59189;SDS011;50749;51.636;4.948;2023-10-13T04:11:02;3.30;;;2.13;;
59189;SDS011;50749;51.636;4.948;2023-10-13T04:13:47;4.78;;;2.38;;
59189;SDS011;50749;51.636;4.948;2023-10-13T04:16:33;3.53;;;2.22;;
59189;SDS011;50749;51.636;4.948;2023-10-13T04:18:58;5.10;;;2.80;;
59189;SDS011;50749;51.636;4.948;2023-10-13T04:21:24;4.38;;;2.50;;
59189;SDS011;50749;51.636;4.948;2023-10-13T04:24:11;3.92;;;2.30;;
59189;SDS011;50749;51.636;4.948;2023-10-13T04:26:43;3.60;;;2.25;;
59189;SDS011;50749;51.636;4.948;2023-10-13T04:29:28;5.22;;;2.70;;
59189;SDS011;50749;51.636;4.948;2023-10-13T04:32:13;7.22;;;3.38;;
59189;SDS011;50749;51.636;4.948;2023-10-13T04:34:56;5.20;;;2.47;;
59189;SDS011;50749;51.636;4.948;2023-10-13T04:37:38;5.30;;;2.50;;
59189;SDS011;50749;51.636;4.948;2023-10-13T04:40:19;3.72;;;1.60;;
59189;SDS011;50749;51.636;4.948;2023-10-13T04:42:50;3.55;;;1.98;;
59189;SDS011;50749;51.636;4.948;2023-10-13T04:45:24;4.85;;;2.58;;
59189;SDS011;50749;51.636;4.948;2023-10-13T04:48:13;4.55;;;1.83;;
59189;SDS011;50749;51.636;4.948;2023-10-13T04:50:59;3.67;;;2.35;;
59189;SDS011;50749;51.636;4.948;2023-10-13T04:53:44;4.90;;;2.15;;
59189;SDS011;50749;51.636;4.948;2023-10-13T04:56:27;3.95;;;2.15;;
59189;SDS011;50749;51.636;4.948;2023-10-13T04:59:13;3.72;;;1.95;;
59189;SDS011;50749;51.636;4.948;2023-10-13T05:01:57;4.35;;;2.35;;
59189;SDS011;50749;51.636;4.948;2023-10-13T05:04:42;4.05;;;2.83;;
59189;SDS011;50749;51.636;4.948;2023-10-13T05:07:31;6.45;;;2.45;;
59189;SDS011;50749;51.636;4.948;2023-10-13T05:10:16;3.67;;;1.67;;
59189;SDS011;50749;51.636;4.948;2023-10-13T05:13:02;2.42;;;1.52;;
59189;SDS011;50749;51.636;4.948;2023-10-13T05:15:48;2.55;;;1.58;;
59189;SDS011;50749;51.636;4.948;2023-10-13T05:18:33;4.40;;;2.35;;
59189;SDS011;50749;51.636;4.948;2023-10-13T05:21:18;3.13;;;2.05;;
59189;SDS011;50749;51.636;4.948;2023-10-13T05:24:02;4.35;;;2.13;;
59189;SDS011;50749;51.636;4.948;2023-10-13T05:26:47;4.32;;;2.15;;
59189;SDS011;50749;51.636;4.948;2023-10-13T05:29:32;4.22;;;2.22;;
59189;SDS011;50749;51.636;4.948;2023-10-13T05:35:01;3.47;;;1.98;;
59189;SDS011;50749;51.636;4.948;2023-10-13T05:37:45;2.97;;;1.85;;
59189;SDS011;50749;51.636;4.948;2023-10-13T05:40:29;3.20;;;1.77;;
59189;SDS011;50749;51.636;4.948;2023-10-13T05:43:14;4.32;;;1.90;;
59189;SDS011;50749;51.636;4.948;2023-10-13T05:46:02;6.50;;;1.58;;
59189;SDS011;50749;51.636;4.948;2023-10-13T05:48:47;3.30;;;1.88;;
59189;SDS011;50749;51.636;4.948;2023-10-13T05:51:29;4.68;;;1.95;;
59189;SDS011;50749;51.636;4.948;2023-10-13T05:54:02;2.70;;;1.33;;
59189;SDS011;50749;51.636;4.948;2023-10-13T05:56:54;3.28;;;1.60;;
59189;SDS011;50749;51.636;4.948;2023-10-13T05:59:39;2.20;;;1.60;;
59189;SDS011;50749;51.636;4.948;2023-10-13T06:02:23;2.65;;;1.10;;
59189;SDS011;50749;51.636;4.948;2023-10-13T06:05:09;2.70;;;1.60;;
59189;SDS011;50749;51.636;4.948;2023-10-13T06:07:55;3.83;;;1.73;;
59189;SDS011;50749;51.636;4.948;2023-10-13T06:10:41;3.10;;;1.90;;
59189;SDS011;50749;51.636;4.948;2023-10-13T06:13:26;4.40;;;1.80;;
59189;SDS011;50749;51.636;4.948;2023-10-13T06:16:15;2.65;;;1.50;;
59189;SDS011;50749;51.636;4.948;2023-10-13T06:19:14;2.05;;;1.33;;
59189;SDS011;50749;51.636;4.948;2023-10-13T06:21:58;3.78;;;1.67;;
59189;SDS011;50749;51.636;4.948;2023-10-13T06:24:43;2.07;;;1.40;;
59189;SDS011;50749;51.636;4.948;2023-10-13T06:27:28;2.38;;;1.40;;
59189;SDS011;50749;51.636;4.948;2023-10-13T06:30:12;4.13;;;2.05;;
59189;SDS011;50749;51.636;4.948;2023-10-13T06:32:38;2.92;;;1.60;;
59189;SDS011;50749;51.636;4.948;2023-10-13T06:35:05;5.88;;;2.20;;
59189;SDS011;50749;51.636;4.948;2023-10-13T06:37:44;5.82;;;1.55;;
59189;SDS011;50749;51.636;4.948;2023-10-13T06:40:10;3.40;;;2.22;;
59189;SDS011;50749;51.636;4.948;2023-10-13T06:42:56;5.47;;;2.50;;
59189;SDS011;50749;51.636;4.948;2023-10-13T06:45:37;5.10;;;2.50;;
59189;SDS011;50749;51.636;4.948;2023-10-13T06:48:03;4.35;;;2.35;;
59189;SDS011;50749;51.636;4.948;2023-10-13T06:50:30;5.55;;;2.28;;
59189;SDS011;50749;51.636;4.948;2023-10-13T06:53:04;5.35;;;2.72;;
59189;SDS011;50749;51.636;4.948;2023-10-13T06:55:30;6.45;;;2.50;;
59189;SDS011;50749;51.636;4.948;2023-10-13T06:58:01;4.72;;;2.00;;
59189;SDS011;50749;51.636;4.948;2023-10-13T07:00:30;3.65;;;1.85;;
59189;SDS011;50749;51.636;4.948;2023-10-13T07:03:00;6.75;;;2.30;;
59189;SDS011;50749;51.636;4.948;2023-10-13T07:05:37;6.07;;;1.93;;
59189;SDS011;50749;51.636;4.948;2023-10-13T07:08:05;4.30;;;2.10;;
59189;SDS011;50749;51.636;4.948;2023-10-13T07:10:31;3.55;;;1.95;;
59189;SDS011;50749;51.636;4.948;2023-10-13T07:13:11;6.30;;;2.25;;
59189;SDS011;50749;51.636;4.948;2023-10-13T07:15:39;5.88;;;2.53;;
59189;SDS011;50749;51.636;4.948;2023-10-13T07:18:13;6.80;;;2.53;;
59189;SDS011;50749;51.636;4.948;2023-10-13T07:20:41;6.50;;;2.38;;
59189;SDS011;50749;51.636;4.948;2023-10-13T07:23:13;4.45;;;2.40;;
59189;SDS011;50749;51.636;4.948;2023-10-13T07:25:56;5.05;;;2.05;;
59189;SDS011;50749;51.636;4.948;2023-10-13T07:28:28;9.98;;;2.72;;
59189;SDS011;50749;51.636;4.948;2023-10-13T07:30:56;4.95;;;2.13;;
59189;SDS011;50749;51.636;4.948;2023-10-13T07:33:26;5.05;;;2.50;;
59189;SDS011;50749;51.636;4.948;2023-10-13T07:36:19;5.28;;;2.47;;
59189;SDS011;50749;51.636;4.948;2023-10-13T07:39:05;5.03;;;2.17;;
59189;SDS011;50749;51.636;4.948;2023-10-13T07:41:47;3.83;;;2.35;;
59189;SDS011;50749;51.636;4.948;2023-10-13T07:44:34;8.65;;;2.70;;
59189;SDS011;50749;51.636;4.948;2023-10-13T07:47:02;6.05;;;2.10;;
59189;SDS011;50749;51.636;4.948;2023-10-13T07:49:30;6.10;;;2.60;;
59189;SDS011;50749;51.636;4.948;2023-10-13T07:52:02;8.77;;;2.40;;
59189;SDS011;50749;51.636;4.948;2023-10-13T07:54:46;7.00;;;2.90;;
59189;SDS011;50749;51.636;4.948;2023-10-13T07:57:17;6.72;;;2.60;;
59189;SDS011;50749;51.636;4.948;2023-10-13T07:59:44;10.73;;;2.95;;
59189;SDS011;50749;51.636;4.948;2023-10-13T08:02:15;6.65;;;3.33;;
59189;SDS011;50749;51.636;4.948;2023-10-13T08:05:01;4.90;;;2.58;;
59189;SDS011;50749;51.636;4.948;2023-10-13T08:07:29;9.85;;;3.88;;
59189;SDS011;50749;51.636;4.948;2023-10-13T08:09:56;13.32;;;3.25;;
59189;SDS011;50749;51.636;4.948;2023-10-13T08:12:24;10.45;;;2.80;;
59189;SDS011;50749;51.636;4.948;2023-10-13T08:14:51;6.82;;;2.33;;
59189;SDS011;50749;51.636;4.948;2023-10-13T08:17:34;6.68;;;2.47;;
59189;SDS011;50749;51.636;4.948;2023-10-13T08:20:00;6.22;;;2.17;;
59189;SDS011;50749;51.636;4.948;2023-10-13T08:22:36;6.72;;;2.33;;
59189;SDS011;50749;51.636;4.948;2023-10-13T08:25:05;6.38;;;2.60;;
59189;SDS011;50749;51.636;4.948;2023-10-13T08:27:49;6.68;;;2.88;;
59189;SDS011;50749;51.636;4.948;2023-10-13T08:30:35;5.43;;;1.92;;
59189;SDS011;50749;51.636;4.948;2023-10-13T08:33:16;8.77;;;2.40;;
59189;SDS011;50749;51.636;4.948;2023-10-13T08:38:41;5.15;;;2.58;;
59189;SDS011;50749;51.636;4.948;2023-10-13T08:41:21;6.22;;;2.00;;
59189;SDS011;50749;51.636;4.948;2023-10-13T08:43:50;3.85;;;2.00;;
59189;SDS011;50749;51.636;4.948;2023-10-13T08:46:17;6.20;;;2.50;;
59189;SDS011;50749;51.636;4.948;2023-10-13T08:48:57;6.90;;;2.95;;
59189;SDS011;50749;51.636;4.948;2023-10-13T08:51:36;6.15;;;2.47;;
59189;SDS011;50749;51.636;4.948;2023-10-13T08:54:15;4.38;;;2.03;;
59189;SDS011;50749;51.636;4.948;2023-10-13T08:56:59;4.53;;;2.53;;
59189;SDS011;50749;51.636;4.948;2023-10-13T08:59:45;6.30;;;2.45;;
59189;SDS011;50749;51.636;4.948;2023-10-13T09:02:20;5.53;;;2.57;;
59189;SDS011;50749;51.636;4.948;2023-10-13T09:04:48;5.47;;;2.35;;
59189;SDS011;50749;51.636;4.948;2023-10-13T09:07:25;5.30;;;2.42;;
59189;SDS011;50749;51.636;4.948;2023-10-13T09:09:52;5.65;;;2.00;;
59189;SDS011;50749;51.636;4.948;2023-10-13T09:12:21;6.00;;;3.08;;
59189;SDS011;50749;51.636;4.948;2023-10-13T09:15:05;6.10;;;2.10;;
59189;SDS011;50749;51.636;4.948;2023-10-13T09:17:42;5.35;;;2.13;;
59189;SDS011;50749;51.636;4.948;2023-10-13T09:20:16;4.63;;;2.13;;
59189;SDS011;50749;51.636;4.948;2023-10-13T09:22:46;8.07;;;2.67;;
59189;SDS011;50749;51.636;4.948;2023-10-13T09:25:22;9.13;;;2.58;;
59189;SDS011;50749;51.636;4.948;2023-10-13T09:27:49;4.70;;;2.50;;
59189;SDS011;50749;51.636;4.948;2023-10-13T09:30:19;7.70;;;2.85;;
59189;SDS011;50749;51.636;4.948;2023-10-13T09:33:01;5.85;;;2.35;;
59189;SDS011;50749;51.636;4.948;2023-10-13T09:35:29;12.68;;;3.17;;
59189;SDS011;50749;51.636;4.948;2023-10-13T09:38:02;6.57;;;2.28;;
59189;SDS011;50749;51.636;4.948;2023-10-13T09:40:29;6.05;;;2.15;;
59189;SDS011;50749;51.636;4.948;2023-10-13T09:43:00;3.97;;;2.20;;
59189;SDS011;50749;51.636;4.948;2023-10-13T09:45:32;4.10;;;2.10;;
59189;SDS011;50749;51.636;4.948;2023-10-13T09:48:04;5.13;;;2.35;;
59189;SDS011;50749;51.636;4.948;2023-10-13T09:50:42;6.93;;;2.35;;
59189;SDS011;50749;51.636;4.948;2023-10-13T09:53:11;7.40;;;2.90;;
59189;SDS011;50749;51.636;4.948;2023-10-13T09:56:25;5.57;;;2.88;;
59189;SDS011;50749;51.636;4.948;2023-10-13T10:01:37;6.00;;;2.60;;
59189;SDS011;50749;51.636;4.948;2023-10-13T10:04:16;8.65;;;2.42;;
59189;SDS011;50749;51.636;4.948;2023-10-13T10:06:53;5.40;;;2.50;;
59189;SDS011;50749;51.636;4.948;2023-10-13T10:09:29;4.90;;;2.30;;
59189;SDS011;50749;51.636;4.948;2023-10-13T10:14:56;5.68;;;2.90;;
59189;SDS011;50749;51.636;4.948;2023-10-13T10:17:46;3.78;;;2.10;;
59189;SDS011;50749;51.636;4.948;2023-10-13T10:20:13;5.88;;;2.88;;
59189;SDS011;50749;51.636;4.948;2023-10-13T10:22:58;3.83;;;2.20;;
59189;SDS011;50749;51.636;4.948;2023-10-13T10:25:31;4.88;;;2.13;;
59189;SDS011;50749;51.636;4.948;2023-10-13T10:28:06;4.88;;;2.00;;
59189;SDS011;50749;51.636;4.948;2023-10-13T10:30:34;4.55;;;2.10;;
59189;SDS011;50749;51.636;4.948;2023-10-13T10:33:04;5.13;;;2.30;;
59189;SDS011;50749;51.636;4.948;2023-10-13T10:35:45;8.90;;;2.10;;
59189;SDS011;50749;51.636;4.948;2023-10-13T10:38:12;4.95;;;2.10;;
59189;SDS011;50749;51.636;4.948;2023-10-13T10:40:49;5.30;;;2.40;;
59189;SDS011;50749;51.636;4.948;2023-10-13T10:43:28;4.00;;;2.63;;
59189;SDS011;50749;51.636;4.948;2023-10-13T10:46:14;4.63;;;2.30;;
59189;SDS011;50749;51.636;4.948;2023-10-13T10:48:41;6.22;;;2.00;;
59189;SDS011;50749;51.636;4.948;2023-10-13T10:51:11;3.28;;;1.85;;
59189;SDS011;50749;51.636;4.948;2023-10-13T10:54:00;8.50;;;2.42;;
59189;SDS011;50749;51.636;4.948;2023-10-13T10:56:38;4.53;;;2.28;;
59189;SDS011;50749;51.636;4.948;2023-10-13T10:59:05;5.15;;;1.95;;
59189;SDS011;50749;51.636;4.948;2023-10-13T11:01:44;6.25;;;2.20;;
59189;SDS011;50749;51.636;4.948;2023-10-13T11:04:16;4.80;;;2.28;;
59189;SDS011;50749;51.636;4.948;2023-10-13T11:06:51;8.63;;;2.40;;
59189;SDS011;50749;51.636;4.948;2023-10-13T11:09:26;6.65;;;2.97;;
59189;SDS011;50749;51.636;4.948;2023-10-13T11:12:42;4.22;;;2.35;;
59189;SDS011;50749;51.636;4.948;2023-10-13T11:15:47;6.78;;;3.03;;
59189;SDS011;50749;51.636;4.948;2023-10-13T11:18:30;5.72;;;2.35;;
59189;SDS011;50749;51.636;4.948;2023-10-13T11:21:06;5.40;;;2.03;;
59189;SDS011;50749;51.636;4.948;2023-10-13T11:23:34;7.07;;;2.58;;
59189;SDS011;50749;51.636;4.948;2023-10-13T11:26:35;6.95;;;2.67;;
59189;SDS011;50749;51.636;4.948;2023-10-13T11:29:17;3.88;;;2.67;;
59189;SDS011;50749;51.636;4.948;2023-10-13T11:31:50;8.85;;;2.47;;
59189;SDS011;50749;51.636;4.948;2023-10-13T11:34:43;6.88;;;2.80;;
59189;SDS011;50749;51.636;4.948;2023-10-13T11:37:36;7.53;;;2.80;;
59189;SDS011;50749;51.636;4.948;2023-10-13T11:40:25;5.50;;;2.38;;
59189;SDS011;50749;51.636;4.948;2023-10-13T11:43:47;8.68;;;2.63;;
59189;SDS011;50749;51.636;4.948;2023-10-13T11:46:49;4.38;;;2.28;;
59189;SDS011;50749;51.636;4.948;2023-10-13T11:49:59;5.40;;;2.65;;
59189;SDS011;50749;51.636;4.948;2023-10-13T11:53:08;7.20;;;2.63;;
59189;SDS011;50749;51.636;4.948;2023-10-13T11:56:09;7.35;;;2.65;;
59189;SDS011;50749;51.636;4.948;2023-10-13T11:58:57;9.85;;;3.25;;
59189;SDS011;50749;51.636;4.948;2023-10-13T12:01:27;14.00;;;3.88;;
59189;SDS011;50749;51.636;4.948;2023-10-13T12:04:13;14.10;;;4.60;;
59189;SDS011;50749;51.636;4.948;2023-10-13T12:06:58;17.60;;;4.57;;
59189;SDS011;50749;51.636;4.948;2023-10-13T12:09:58;15.45;;;4.82;;
59189;SDS011;50749;51.636;4.948;2023-10-13T12:12:31;10.35;;;4.10;;
59189;SDS011;50749;51.636;4.948;2023-10-13T12:15:03;15.05;;;4.53;;
59189;SDS011;50749;51.636;4.948;2023-10-13T12:17:35;11.02;;;4.40;;
59189;SDS011;50749;51.636;4.948;2023-10-13T12:20:02;10.32;;;4.05;;
59189;SDS011;50749;51.636;4.948;2023-10-13T12:22:31;11.98;;;3.75;;
59189;SDS011;50749;51.636;4.948;2023-10-13T12:25:18;12.60;;;3.80;;
59189;SDS011;50749;51.636;4.948;2023-10-13T12:27:53;14.48;;;4.32;;
59189;SDS011;50749;51.636;4.948;2023-10-13T12:30:25;15.48;;;3.63;;
59189;SDS011;50749;51.636;4.948;2023-10-13T12:33:04;10.30;;;4.00;;
59189;SDS011;50749;51.636;4.948;2023-10-13T12:35:39;12.10;;;4.03;;
59189;SDS011;50749;51.636;4.948;2023-10-13T12:38:24;10.77;;;3.53;;
59189;SDS011;50749;51.636;4.948;2023-10-13T12:41:22;15.75;;;4.70;;
59189;SDS011;50749;51.636;4.948;2023-10-13T12:44:06;10.43;;;3.30;;
59189;SDS011;50749;51.636;4.948;2023-10-13T12:49:36;7.90;;;3.33;;
59189;SDS011;50749;51.636;4.948;2023-10-13T12:52:08;13.15;;;3.88;;
59189;SDS011;50749;51.636;4.948;2023-10-13T12:54:44;7.88;;;3.63;;
59189;SDS011;50749;51.636;4.948;2023-10-13T12:57:28;10.30;;;3.72;;
59189;SDS011;50749;51.636;4.948;2023-10-13T12:59:55;9.90;;;3.13;;
59189;SDS011;50749;51.636;4.948;2023-10-13T13:02:25;8.25;;;4.10;;
59189;SDS011;50749;51.636;4.948;2023-10-13T13:04:55;15.50;;;4.10;;
59189;SDS011;50749;51.636;4.948;2023-10-13T13:07:32;14.23;;;4.75;;
59189;SDS011;50749;51.636;4.948;2023-10-13T13:10:09;12.63;;;3.58;;
59189;SDS011;50749;51.636;4.948;2023-10-13T13:12:37;9.43;;;3.30;;
59189;SDS011;50749;51.636;4.948;2023-10-13T13:15:03;10.75;;;3.70;;
59189;SDS011;50749;51.636;4.948;2023-10-13T13:17:35;7.47;;;3.60;;
59189;SDS011;50749;51.636;4.948;2023-10-13T13:20:01;10.85;;;3.53;;
59189;SDS011;50749;51.636;4.948;2023-10-13T13:22:37;6.15;;;3.72;;
59189;SDS011;50749;51.636;4.948;2023-10-13T13:25:03;12.05;;;3.90;;
59189;SDS011;50749;51.636;4.948;2023-10-13T13:27:35;10.75;;;3.58;;
59189;SDS011;50749;51.636;4.948;2023-10-13T13:30:03;10.48;;;3.85;;
59189;SDS011;50749;51.636;4.948;2023-10-13T13:32:39;10.68;;;3.42;;
59189;SDS011;50749;51.636;4.948;2023-10-13T13:35:12;8.65;;;3.80;;
59189;SDS011;50749;51.636;4.948;2023-10-13T13:38:01;6.20;;;3.58;;
59189;SDS011;50749;51.636;4.948;2023-10-13T13:40:39;9.65;;;3.80;;
59189;SDS011;50749;51.636;4.948;2023-10-13T13:43:05;9.13;;;3.65;;
59189;SDS011;50749;51.636;4.948;2023-10-13T13:45:32;7.35;;;3.28;;
59189;SDS011;50749;51.636;4.948;2023-10-13T13:47:59;9.10;;;3.45;;
59189;SDS011;50749;51.636;4.948;2023-10-13T13:50:37;7.53;;;4.05;;
59189;SDS011;50749;51.636;4.948;2023-10-13T13:53:06;11.85;;;3.72;;
59189;SDS011;50749;51.636;4.948;2023-10-13T13:55:36;7.25;;;3.35;;
59189;SDS011;50749;51.636;4.948;2023-10-13T13:58:08;9.23;;;3.70;;
59189;SDS011;50749;51.636;4.948;2023-10-13T14:00:37;9.93;;;3.30;;
59189;SDS011;50749;51.636;4.948;2023-10-13T14:03:06;8.18;;;3.65;;
59189;SDS011;50749;51.636;4.948;2023-10-13T14:05:49;12.40;;;3.47;;
59189;SDS011;50749;51.636;4.948;2023-10-13T14:08:16;7.32;;;2.78;;
59189;SDS011;50749;51.636;4.948;2023-10-13T14:10:42;9.68;;;3.28;;
59189;SDS011;50749;51.636;4.948;2023-10-13T14:13:33;5.80;;;3.03;;
59189;SDS011;50749;51.636;4.948;2023-10-13T14:16:20;6.32;;;2.72;;
59189;SDS011;50749;51.636;4.948;2023-10-13T14:18:48;7.32;;;3.03;;
59189;SDS011;50749;51.636;4.948;2023-10-13T14:21:16;7.68;;;3.33;;
59189;SDS011;50749;51.636;4.948;2023-10-13T14:23:49;9.40;;;3.13;;
59189;SDS011;50749;51.636;4.948;2023-10-13T14:26:16;10.43;;;3.40;;
59189;SDS011;50749;51.636;4.948;2023-10-13T14:28:51;9.27;;;3.10;;
59189;SDS011;50749;51.636;4.948;2023-10-13T14:31:27;7.35;;;3.20;;
59189;SDS011;50749;51.636;4.948;2023-10-13T14:34:00;6.90;;;3.00;;
59189;SDS011;50749;51.636;4.948;2023-10-13T14:36:26;5.53;;;2.72;;
59189;SDS011;50749;51.636;4.948;2023-10-13T14:38:57;7.93;;;3.60;;
59189;SDS011;50749;51.636;4.948;2023-10-13T14:41:23;6.72;;;3.33;;
59189;SDS011;50749;51.636;4.948;2023-10-13T14:43:49;8.52;;;3.03;;
59189;SDS011;50749;51.636;4.948;2023-10-13T14:46:18;5.20;;;2.85;;
59189;SDS011;50749;51.636;4.948;2023-10-13T14:48:58;8.48;;;2.65;;
59189;SDS011;50749;51.636;4.948;2023-10-13T14:51:28;6.82;;;2.90;;
59189;SDS011;50749;51.636;4.948;2023-10-13T14:53:56;6.47;;;3.47;;
59189;SDS011;50749;51.636;4.948;2023-10-13T14:56:25;7.97;;;3.63;;
59189;SDS011;50749;51.636;4.948;2023-10-13T14:58:58;5.55;;;3.00;;
59189;SDS011;50749;51.636;4.948;2023-10-13T15:01:27;6.00;;;3.20;;
59189;SDS011;50749;51.636;4.948;2023-10-13T15:04:01;9.52;;;3.22;;
59189;SDS011;50749;51.636;4.948;2023-10-13T15:06:31;6.32;;;3.55;;
59189;SDS011;50749;51.636;4.948;2023-10-13T15:08:58;5.45;;;2.42;;
59189;SDS011;50749;51.636;4.948;2023-10-13T15:11:27;7.95;;;2.95;;
59189;SDS011;50749;51.636;4.948;2023-10-13T15:14:02;5.85;;;2.90;;
59189;SDS011;50749;51.636;4.948;2023-10-13T15:16:29;7.50;;;2.83;;
59189;SDS011;50749;51.636;4.948;2023-10-13T15:18:55;7.43;;;2.97;;
59189;SDS011;50749;51.636;4.948;2023-10-13T15:21:21;7.22;;;3.05;;
59189;SDS011;50749;51.636;4.948;2023-10-13T15:23:51;7.68;;;3.33;;
59189;SDS011;50749;51.636;4.948;2023-10-13T15:26:18;6.28;;;2.60;;
59189;SDS011;50749;51.636;4.948;2023-10-13T15:28:47;10.98;;;3.13;;
59189;SDS011;50749;51.636;4.948;2023-10-13T15:31:19;9.43;;;2.70;;
59189;SDS011;50749;51.636;4.948;2023-10-13T15:34:11;6.00;;;2.97;;
59189;SDS011;50749;51.636;4.948;2023-10-13T15:36:41;5.88;;;3.35;;
59189;SDS011;50749;51.636;4.948;2023-10-13T15:39:09;5.97;;;3.25;;
59189;SDS011;50749;51.636;4.948;2023-10-13T15:41:43;6.55;;;3.17;;
59189;SDS011;50749;51.636;4.948;2023-10-13T15:44:12;6.50;;;3.17;;
59189;SDS011;50749;51.636;4.948;2023-10-13T15:47:06;4.88;;;2.80;;
59189;SDS011;50749;51.636;4.948;2023-10-13T15:49:32;5.50;;;2.95;;